sensor_id;sensor_type;location;lat;lon;timestamp;temperature;humidity
12115;DHT22;6121;49.810;6.418;2022-09-19T00:00:42;10.60;99.90
12115;DHT22;6121;49.810;6.418;2022-09-19T00:03:09;10.40;99.90
12115;DHT22;6121;49.810;6.418;2022-09-19T00:05:41;10.30;99.90
12115;DHT22;6121;49.810;6.418;2022-09-19T00:08:08;10.20;99.90
12115;DHT22;6121;49.810;6.418;2022-09-19T00:10:39;10.30;99.90
12115;DHT22;6121;49.810;6.418;2022-09-19T00:13:06;10.40;99.90
12115;DHT22;6121;49.810;6.418;2022-09-19T00:15:34;10.40;99.90
12115;DHT22;6121;49.810;6.418;2022-09-19T00:18:00;10.30;99.90
12115;DHT22;6121;49.810;6.418;2022-09-19T00:20:25;10.20;99.90
12115;DHT22;6121;49.810;6.418;2022-09-19T00:22:51;10.30;99.90
12115;DHT22;6121;49.810;6.418;2022-09-19T00:25:35;10.20;99.90
12115;DHT22;6121;49.810;6.418;2022-09-19T00:28:01;10.00;99.90
12115;DHT22;6121;49.810;6.418;2022-09-19T00:30:26;9.70;99.90
12115;DHT22;6121;49.810;6.418;2022-09-19T00:32:52;9.70;99.90
12115;DHT22;6121;49.810;6.418;2022-09-19T00:35:18;9.80;99.90
12115;DHT22;6121;49.810;6.418;2022-09-19T00:37:45;9.80;99.90
12115;DHT22;6121;49.810;6.418;2022-09-19T00:40:11;9.90;99.90
12115;DHT22;6121;49.810;6.418;2022-09-19T00:42:37;9.80;99.90
12115;DHT22;6121;49.810;6.418;2022-09-19T00:45:13;9.80;99.90
12115;DHT22;6121;49.810;6.418;2022-09-19T00:47:45;9.90;99.90
12115;DHT22;6121;49.810;6.418;2022-09-19T00:50:25;9.80;99.90
12115;DHT22;6121;49.810;6.418;2022-09-19T00:53:13;9.80;99.90
12115;DHT22;6121;49.810;6.418;2022-09-19T00:55:41;9.80;99.90
12115;DHT22;6121;49.810;6.418;2022-09-19T01:00:49;9.80;99.90
12115;DHT22;6121;49.810;6.418;2022-09-19T01:03:15;9.70;99.90
12115;DHT22;6121;49.810;6.418;2022-09-19T01:16:55;9.50;99.90
12115;DHT22;6121;49.810;6.418;2022-09-19T01:25:26;9.40;99.90
12115;DHT22;6121;49.810;6.418;2022-09-19T01:28:14;9.40;99.90
12115;DHT22;6121;49.810;6.418;2022-09-19T01:30:53;9.40;99.90
12115;DHT22;6121;49.810;6.418;2022-09-19T01:33:41;9.60;99.90
12115;DHT22;6121;49.810;6.418;2022-09-19T01:36:10;9.50;99.90
12115;DHT22;6121;49.810;6.418;2022-09-19T01:38:41;9.50;99.90
12115;DHT22;6121;49.810;6.418;2022-09-19T01:41:10;9.50;99.90
12115;DHT22;6121;49.810;6.418;2022-09-19T01:43:37;9.50;99.90
12115;DHT22;6121;49.810;6.418;2022-09-19T01:46:26;9.50;99.90
12115;DHT22;6121;49.810;6.418;2022-09-19T01:49:01;9.50;99.90
12115;DHT22;6121;49.810;6.418;2022-09-19T01:51:38;9.40;99.90
12115;DHT22;6121;49.810;6.418;2022-09-19T01:54:17;9.50;99.90
12115;DHT22;6121;49.810;6.418;2022-09-19T02:08:19;9.50;99.90
12115;DHT22;6121;49.810;6.418;2022-09-19T02:10:51;9.70;99.90
12115;DHT22;6121;49.810;6.418;2022-09-19T02:13:22;9.60;99.90
12115;DHT22;6121;49.810;6.418;2022-09-19T02:15:55;9.50;99.90
12115;DHT22;6121;49.810;6.418;2022-09-19T02:18:35;9.40;99.90
12115;DHT22;6121;49.810;6.418;2022-09-19T02:21:08;9.40;99.90
12115;DHT22;6121;49.810;6.418;2022-09-19T02:23:39;9.50;99.90
12115;DHT22;6121;49.810;6.418;2022-09-19T02:26:10;9.50;99.90
12115;DHT22;6121;49.810;6.418;2022-09-19T02:28:39;9.50;99.90
12115;DHT22;6121;49.810;6.418;2022-09-19T02:31:09;9.40;99.90
12115;DHT22;6121;49.810;6.418;2022-09-19T02:33:36;9.40;99.90
12115;DHT22;6121;49.810;6.418;2022-09-19T02:36:12;9.60;99.90
12115;DHT22;6121;49.810;6.418;2022-09-19T02:42:06;9.60;99.90
12115;DHT22;6121;49.810;6.418;2022-09-19T02:47:31;9.20;99.90
12115;DHT22;6121;49.810;6.418;2022-09-19T02:50:16;9.10;99.90
12115;DHT22;6121;49.810;6.418;2022-09-19T02:52:43;9.30;99.90
12115;DHT22;6121;49.810;6.418;2022-09-19T02:55:14;9.30;99.90
12115;DHT22;6121;49.810;6.418;2022-09-19T02:57:44;9.30;99.90
12115;DHT22;6121;49.810;6.418;2022-09-19T03:00:11;9.30;99.90
12115;DHT22;6121;49.810;6.418;2022-09-19T03:02:44;9.30;99.90
12115;DHT22;6121;49.810;6.418;2022-09-19T03:05:19;9.20;99.90
12115;DHT22;6121;49.810;6.418;2022-09-19T03:07:50;9.30;99.90
12115;DHT22;6121;49.810;6.418;2022-09-19T03:10:22;9.40;99.90
12115;DHT22;6121;49.810;6.418;2022-09-19T03:12:53;9.50;99.90
12115;DHT22;6121;49.810;6.418;2022-09-19T03:15:45;9.50;99.90
12115;DHT22;6121;49.810;6.418;2022-09-19T03:18:14;9.50;99.90
12115;DHT22;6121;49.810;6.418;2022-09-19T03:20:49;9.60;99.90
12115;DHT22;6121;49.810;6.418;2022-09-19T03:23:21;9.40;99.90
12115;DHT22;6121;49.810;6.418;2022-09-19T03:25:49;9.30;99.90
12115;DHT22;6121;49.810;6.418;2022-09-19T03:28:15;9.40;99.90
12115;DHT22;6121;49.810;6.418;2022-09-19T03:30:48;9.40;99.90
12115;DHT22;6121;49.810;6.418;2022-09-19T03:33:14;9.30;99.90
12115;DHT22;6121;49.810;6.418;2022-09-19T03:35:42;9.30;99.90
12115;DHT22;6121;49.810;6.418;2022-09-19T03:38:08;9.20;99.90
12115;DHT22;6121;49.810;6.418;2022-09-19T03:40:34;9.20;99.90
12115;DHT22;6121;49.810;6.418;2022-09-19T03:43:00;9.00;99.90
12115;DHT22;6121;49.810;6.418;2022-09-19T03:45:26;9.00;99.90
12115;DHT22;6121;49.810;6.418;2022-09-19T03:47:51;9.10;99.90
12115;DHT22;6121;49.810;6.418;2022-09-19T03:50:18;9.10;99.90
12115;DHT22;6121;49.810;6.418;2022-09-19T03:52:43;9.10;99.90
12115;DHT22;6121;49.810;6.418;2022-09-19T03:55:13;9.10;99.90
12115;DHT22;6121;49.810;6.418;2022-09-19T03:57:38;9.10;99.90
12115;DHT22;6121;49.810;6.418;2022-09-19T04:00:04;9.10;99.90
12115;DHT22;6121;49.810;6.418;2022-09-19T04:02:30;9.00;99.90
12115;DHT22;6121;49.810;6.418;2022-09-19T04:04:56;9.10;99.90
12115;DHT22;6121;49.810;6.418;2022-09-19T04:07:21;9.10;99.90
12115;DHT22;6121;49.810;6.418;2022-09-19T04:09:47;9.10;99.90
12115;DHT22;6121;49.810;6.418;2022-09-19T04:12:12;9.20;99.90
12115;DHT22;6121;49.810;6.418;2022-09-19T04:14:39;9.10;99.90
12115;DHT22;6121;49.810;6.418;2022-09-19T04:17:05;9.10;99.90
12115;DHT22;6121;49.810;6.418;2022-09-19T04:19:32;9.10;99.90
12115;DHT22;6121;49.810;6.418;2022-09-19T04:21:58;9.10;99.90
12115;DHT22;6121;49.810;6.418;2022-09-19T04:24:25;9.10;99.90
12115;DHT22;6121;49.810;6.418;2022-09-19T04:26:52;8.90;99.90
12115;DHT22;6121;49.810;6.418;2022-09-19T04:29:17;8.90;99.90
12115;DHT22;6121;49.810;6.418;2022-09-19T04:31:44;9.00;99.90
12115;DHT22;6121;49.810;6.418;2022-09-19T04:34:10;9.00;99.90
12115;DHT22;6121;49.810;6.418;2022-09-19T04:36:42;9.00;99.90
12115;DHT22;6121;49.810;6.418;2022-09-19T04:39:09;9.00;99.90
12115;DHT22;6121;49.810;6.418;2022-09-19T04:41:36;8.80;99.90
12115;DHT22;6121;49.810;6.418;2022-09-19T04:44:04;8.90;99.90
12115;DHT22;6121;49.810;6.418;2022-09-19T04:46:30;8.90;99.90
12115;DHT22;6121;49.810;6.418;2022-09-19T04:48:58;8.70;99.90
12115;DHT22;6121;49.810;6.418;2022-09-19T04:51:24;8.70;99.90
12115;DHT22;6121;49.810;6.418;2022-09-19T04:53:51;8.80;99.90
12115;DHT22;6121;49.810;6.418;2022-09-19T04:56:17;8.80;99.90
12115;DHT22;6121;49.810;6.418;2022-09-19T04:58:44;8.80;99.90
12115;DHT22;6121;49.810;6.418;2022-09-19T05:01:10;8.80;99.90
12115;DHT22;6121;49.810;6.418;2022-09-19T05:03:37;8.80;99.90
12115;DHT22;6121;49.810;6.418;2022-09-19T05:06:03;8.80;99.90
12115;DHT22;6121;49.810;6.418;2022-09-19T05:08:32;8.70;99.90
12115;DHT22;6121;49.810;6.418;2022-09-19T05:11:00;8.70;99.90
12115;DHT22;6121;49.810;6.418;2022-09-19T05:13:29;8.60;99.90
12115;DHT22;6121;49.810;6.418;2022-09-19T05:15:57;8.70;99.90
12115;DHT22;6121;49.810;6.418;2022-09-19T05:18:23;8.80;99.90
12115;DHT22;6121;49.810;6.418;2022-09-19T05:20:49;8.80;99.90
12115;DHT22;6121;49.810;6.418;2022-09-19T05:23:17;8.90;99.90
12115;DHT22;6121;49.810;6.418;2022-09-19T05:25:43;8.90;99.90
12115;DHT22;6121;49.810;6.418;2022-09-19T05:28:09;8.80;99.90
12115;DHT22;6121;49.810;6.418;2022-09-19T05:30:38;8.80;99.90
12115;DHT22;6121;49.810;6.418;2022-09-19T05:33:04;8.80;99.90
12115;DHT22;6121;49.810;6.418;2022-09-19T05:35:31;8.80;99.90
12115;DHT22;6121;49.810;6.418;2022-09-19T05:37:57;8.80;99.90
12115;DHT22;6121;49.810;6.418;2022-09-19T05:40:24;8.80;99.90
12115;DHT22;6121;49.810;6.418;2022-09-19T05:42:50;8.80;99.90
12115;DHT22;6121;49.810;6.418;2022-09-19T05:45:17;8.70;99.90
12115;DHT22;6121;49.810;6.418;2022-09-19T05:47:43;8.70;99.90
12115;DHT22;6121;49.810;6.418;2022-09-19T05:50:11;8.70;99.90
12115;DHT22;6121;49.810;6.418;2022-09-19T05:52:41;8.80;99.90
12115;DHT22;6121;49.810;6.418;2022-09-19T05:55:27;8.80;99.90
12115;DHT22;6121;49.810;6.418;2022-09-19T05:57:57;8.80;99.90
12115;DHT22;6121;49.810;6.418;2022-09-19T06:00:25;8.70;99.90
12115;DHT22;6121;49.810;6.418;2022-09-19T06:03:02;8.70;99.90
12115;DHT22;6121;49.810;6.418;2022-09-19T06:05:30;8.70;99.90
12115;DHT22;6121;49.810;6.418;2022-09-19T06:07:59;8.80;99.90
12115;DHT22;6121;49.810;6.418;2022-09-19T06:10:26;8.90;99.90
12115;DHT22;6121;49.810;6.418;2022-09-19T06:12:55;8.90;99.90
12115;DHT22;6121;49.810;6.418;2022-09-19T06:15:21;9.00;99.90
12115;DHT22;6121;49.810;6.418;2022-09-19T06:17:52;9.00;99.90
12115;DHT22;6121;49.810;6.418;2022-09-19T06:20:18;9.00;99.90
12115;DHT22;6121;49.810;6.418;2022-09-19T06:22:44;9.00;99.90
12115;DHT22;6121;49.810;6.418;2022-09-19T06:25:09;9.10;99.90
12115;DHT22;6121;49.810;6.418;2022-09-19T06:27:35;9.10;99.90
12115;DHT22;6121;49.810;6.418;2022-09-19T06:30:04;9.30;99.90
12115;DHT22;6121;49.810;6.418;2022-09-19T06:32:31;9.30;99.90
12115;DHT22;6121;49.810;6.418;2022-09-19T06:34:56;9.50;99.90
12115;DHT22;6121;49.810;6.418;2022-09-19T06:37:22;9.50;99.90
12115;DHT22;6121;49.810;6.418;2022-09-19T06:39:47;9.40;99.90
12115;DHT22;6121;49.810;6.418;2022-09-19T06:42:13;9.50;99.90
12115;DHT22;6121;49.810;6.418;2022-09-19T06:44:40;9.50;99.90
12115;DHT22;6121;49.810;6.418;2022-09-19T06:47:05;9.50;99.90
12115;DHT22;6121;49.810;6.418;2022-09-19T06:49:32;9.70;99.90
12115;DHT22;6121;49.810;6.418;2022-09-19T06:51:58;9.80;99.90
12115;DHT22;6121;49.810;6.418;2022-09-19T06:54:23;10.00;99.90
12115;DHT22;6121;49.810;6.418;2022-09-19T06:56:50;10.10;99.90
12115;DHT22;6121;49.810;6.418;2022-09-19T06:59:16;10.30;99.90
12115;DHT22;6121;49.810;6.418;2022-09-19T07:01:44;10.20;99.90
12115;DHT22;6121;49.810;6.418;2022-09-19T07:04:13;10.30;99.90
12115;DHT22;6121;49.810;6.418;2022-09-19T07:06:39;10.40;99.90
12115;DHT22;6121;49.810;6.418;2022-09-19T07:09:05;10.30;99.90
12115;DHT22;6121;49.810;6.418;2022-09-19T07:11:33;10.40;99.90
12115;DHT22;6121;49.810;6.418;2022-09-19T07:14:01;10.40;99.90
12115;DHT22;6121;49.810;6.418;2022-09-19T07:16:27;10.50;99.90
12115;DHT22;6121;49.810;6.418;2022-09-19T07:18:52;10.50;99.90
12115;DHT22;6121;49.810;6.418;2022-09-19T07:21:18;10.60;99.90
12115;DHT22;6121;49.810;6.418;2022-09-19T07:23:43;10.60;99.90
12115;DHT22;6121;49.810;6.418;2022-09-19T07:26:10;10.70;99.90
12115;DHT22;6121;49.810;6.418;2022-09-19T07:28:36;10.80;99.90
12115;DHT22;6121;49.810;6.418;2022-09-19T07:31:01;11.00;99.90
12115;DHT22;6121;49.810;6.418;2022-09-19T07:33:27;11.00;99.90
12115;DHT22;6121;49.810;6.418;2022-09-19T07:35:55;11.10;99.90
12115;DHT22;6121;49.810;6.418;2022-09-19T07:38:22;11.20;99.90
12115;DHT22;6121;49.810;6.418;2022-09-19T07:40:48;11.10;99.90
12115;DHT22;6121;49.810;6.418;2022-09-19T07:43:15;11.20;99.90
12115;DHT22;6121;49.810;6.418;2022-09-19T07:45:52;11.20;99.90
12115;DHT22;6121;49.810;6.418;2022-09-19T07:48:18;11.40;99.90
12115;DHT22;6121;49.810;6.418;2022-09-19T07:50:45;11.50;99.90
12115;DHT22;6121;49.810;6.418;2022-09-19T07:53:18;11.60;99.90
12115;DHT22;6121;49.810;6.418;2022-09-19T07:55:52;11.60;99.90
12115;DHT22;6121;49.810;6.418;2022-09-19T07:58:18;11.70;99.90
12115;DHT22;6121;49.810;6.418;2022-09-19T08:00:45;11.80;99.90
12115;DHT22;6121;49.810;6.418;2022-09-19T08:03:13;11.90;99.90
12115;DHT22;6121;49.810;6.418;2022-09-19T08:05:41;12.00;99.90
12115;DHT22;6121;49.810;6.418;2022-09-19T08:08:08;12.00;99.90
12115;DHT22;6121;49.810;6.418;2022-09-19T08:10:35;12.20;99.90
12115;DHT22;6121;49.810;6.418;2022-09-19T08:13:02;12.30;99.90
12115;DHT22;6121;49.810;6.418;2022-09-19T08:15:28;12.60;99.90
12115;DHT22;6121;49.810;6.418;2022-09-19T08:17:56;12.70;99.90
12115;DHT22;6121;49.810;6.418;2022-09-19T08:20:26;12.80;99.90
12115;DHT22;6121;49.810;6.418;2022-09-19T08:22:56;12.90;99.90
12115;DHT22;6121;49.810;6.418;2022-09-19T08:25:23;12.60;99.90
12115;DHT22;6121;49.810;6.418;2022-09-19T08:27:49;12.70;99.90
12115;DHT22;6121;49.810;6.418;2022-09-19T08:30:18;12.90;99.90
12115;DHT22;6121;49.810;6.418;2022-09-19T08:32:48;12.80;99.90
12115;DHT22;6121;49.810;6.418;2022-09-19T08:35:19;13.00;99.90
12115;DHT22;6121;49.810;6.418;2022-09-19T08:37:45;13.10;99.90
12115;DHT22;6121;49.810;6.418;2022-09-19T08:40:16;13.20;99.90
12115;DHT22;6121;49.810;6.418;2022-09-19T08:56:53;13.80;99.90
12115;DHT22;6121;49.810;6.418;2022-09-19T08:59:22;13.60;99.90
12115;DHT22;6121;49.810;6.418;2022-09-19T09:01:52;13.80;99.90
12115;DHT22;6121;49.810;6.418;2022-09-19T09:04:37;13.70;99.90
12115;DHT22;6121;49.810;6.418;2022-09-19T09:10:33;14.00;99.90
12115;DHT22;6121;49.810;6.418;2022-09-19T09:18:53;14.50;99.90
12115;DHT22;6121;49.810;6.418;2022-09-19T09:21:45;14.70;99.90
12115;DHT22;6121;49.810;6.418;2022-09-19T09:24:40;14.90;99.90
12115;DHT22;6121;49.810;6.418;2022-09-19T09:27:20;14.80;99.90
12115;DHT22;6121;49.810;6.418;2022-09-19T09:29:54;15.10;99.90
12115;DHT22;6121;49.810;6.418;2022-09-19T09:32:33;15.50;99.90
12115;DHT22;6121;49.810;6.418;2022-09-19T09:35:30;15.70;99.90
12115;DHT22;6121;49.810;6.418;2022-09-19T09:38:18;15.80;99.90
12115;DHT22;6121;49.810;6.418;2022-09-19T09:46:47;16.20;99.90
12115;DHT22;6121;49.810;6.418;2022-09-19T09:49:15;16.40;99.90
12115;DHT22;6121;49.810;6.418;2022-09-19T09:54:40;16.80;99.90
12115;DHT22;6121;49.810;6.418;2022-09-19T09:57:55;17.20;99.90
12115;DHT22;6121;49.810;6.418;2022-09-19T10:00:22;18.00;99.90
12115;DHT22;6121;49.810;6.418;2022-09-19T10:06:12;20.30;99.90
12115;DHT22;6121;49.810;6.418;2022-09-19T10:09:00;24.50;99.30
12115;DHT22;6121;49.810;6.418;2022-09-19T10:11:44;30.00;83.80
12115;DHT22;6121;49.810;6.418;2022-09-19T10:14:19;32.90;71.80
12115;DHT22;6121;49.810;6.418;2022-09-19T10:16:46;34.40;61.40
12115;DHT22;6121;49.810;6.418;2022-09-19T10:21:56;35.40;54.00
12115;DHT22;6121;49.810;6.418;2022-09-19T10:24:50;36.50;50.10
12115;DHT22;6121;49.810;6.418;2022-09-19T10:27:21;37.70;48.10
12115;DHT22;6121;49.810;6.418;2022-09-19T10:32:16;27.00;56.30
12115;DHT22;6121;49.810;6.418;2022-09-19T10:34:45;25.30;61.60
12115;DHT22;6121;49.810;6.418;2022-09-19T10:37:13;24.00;63.40
12115;DHT22;6121;49.810;6.418;2022-09-19T10:39:44;22.90;65.60
12115;DHT22;6121;49.810;6.418;2022-09-19T10:42:39;21.90;68.40
12115;DHT22;6121;49.810;6.418;2022-09-19T10:45:22;21.30;70.10
12115;DHT22;6121;49.810;6.418;2022-09-19T10:47:52;25.30;70.70
12115;DHT22;6121;49.810;6.418;2022-09-19T10:50:20;27.40;62.10
12115;DHT22;6121;49.810;6.418;2022-09-19T10:52:47;27.80;56.80
12115;DHT22;6121;49.810;6.418;2022-09-19T10:55:21;25.30;60.60
12115;DHT22;6121;49.810;6.418;2022-09-19T11:00:31;23.20;63.10
12115;DHT22;6121;49.810;6.418;2022-09-19T11:05:29;28.10;60.80
12115;DHT22;6121;49.810;6.418;2022-09-19T11:07:55;25.70;58.20
12115;DHT22;6121;49.810;6.418;2022-09-19T11:10:34;23.80;60.70
12115;DHT22;6121;49.810;6.418;2022-09-19T11:13:21;22.60;63.90
12115;DHT22;6121;49.810;6.418;2022-09-19T11:16:14;22.00;65.00
12115;DHT22;6121;49.810;6.418;2022-09-19T11:19:11;21.50;66.90
12115;DHT22;6121;49.810;6.418;2022-09-19T11:33:13;19.50;73.90
12115;DHT22;6121;49.810;6.418;2022-09-19T11:35:48;19.10;74.00
12115;DHT22;6121;49.810;6.418;2022-09-19T11:38:36;19.50;75.30
12115;DHT22;6121;49.810;6.418;2022-09-19T11:41:32;20.40;73.70
12115;DHT22;6121;49.810;6.418;2022-09-19T11:44:23;23.60;68.20
12115;DHT22;6121;49.810;6.418;2022-09-19T11:49:46;22.00;69.10
12115;DHT22;6121;49.810;6.418;2022-09-19T11:52:37;22.20;69.40
12115;DHT22;6121;49.810;6.418;2022-09-19T12:00:21;21.60;68.20
12115;DHT22;6121;49.810;6.418;2022-09-19T12:08:09;20.40;70.70
12115;DHT22;6121;49.810;6.418;2022-09-19T12:10:52;20.20;70.70
12115;DHT22;6121;49.810;6.418;2022-09-19T12:13:26;20.20;72.20
12115;DHT22;6121;49.810;6.418;2022-09-19T12:16:02;20.40;71.10
12115;DHT22;6121;49.810;6.418;2022-09-19T12:21:41;21.20;70.30
12115;DHT22;6121;49.810;6.418;2022-09-19T12:24:19;21.60;68.20
12115;DHT22;6121;49.810;6.418;2022-09-19T12:27:12;21.70;67.30
12115;DHT22;6121;49.810;6.418;2022-09-19T12:29:50;21.70;66.70
12115;DHT22;6121;49.810;6.418;2022-09-19T12:32:27;21.50;66.00
12115;DHT22;6121;49.810;6.418;2022-09-19T12:35:02;21.30;66.20
12115;DHT22;6121;49.810;6.418;2022-09-19T12:37:42;21.40;66.60
12115;DHT22;6121;49.810;6.418;2022-09-19T12:40:18;21.70;66.40
12115;DHT22;6121;49.810;6.418;2022-09-19T12:42:52;21.90;66.60
12115;DHT22;6121;49.810;6.418;2022-09-19T12:45:32;22.00;64.70
12115;DHT22;6121;49.810;6.418;2022-09-19T12:51:04;21.90;63.20
12115;DHT22;6121;49.810;6.418;2022-09-19T12:54:00;22.10;62.90
12115;DHT22;6121;49.810;6.418;2022-09-19T12:56:38;22.20;62.10
12115;DHT22;6121;49.810;6.418;2022-09-19T13:06:59;21.90;62.10
12115;DHT22;6121;49.810;6.418;2022-09-19T13:09:34;21.80;63.60
12115;DHT22;6121;49.810;6.418;2022-09-19T13:12:12;21.70;64.30
12115;DHT22;6121;49.810;6.418;2022-09-19T13:14:51;21.40;64.70
12115;DHT22;6121;49.810;6.418;2022-09-19T13:17:18;21.10;66.20
12115;DHT22;6121;49.810;6.418;2022-09-19T13:20:15;20.80;66.80
12115;DHT22;6121;49.810;6.418;2022-09-19T13:23:01;20.60;68.00
12115;DHT22;6121;49.810;6.418;2022-09-19T13:25:46;20.50;69.40
12115;DHT22;6121;49.810;6.418;2022-09-19T13:33:22;20.40;68.60
12115;DHT22;6121;49.810;6.418;2022-09-19T13:35:51;20.30;68.20
12115;DHT22;6121;49.810;6.418;2022-09-19T13:38:23;20.20;68.20
12115;DHT22;6121;49.810;6.418;2022-09-19T13:41:09;20.20;69.10
12115;DHT22;6121;49.810;6.418;2022-09-19T13:46:23;20.20;68.20
12115;DHT22;6121;49.810;6.418;2022-09-19T13:49:07;20.20;68.60
12115;DHT22;6121;49.810;6.418;2022-09-19T13:51:41;20.00;68.30
12115;DHT22;6121;49.810;6.418;2022-09-19T13:56:42;19.80;69.00
12115;DHT22;6121;49.810;6.418;2022-09-19T13:59:13;19.80;68.90
12115;DHT22;6121;49.810;6.418;2022-09-19T14:02:00;19.80;67.90
12115;DHT22;6121;49.810;6.418;2022-09-19T14:04:42;19.90;66.90
12115;DHT22;6121;49.810;6.418;2022-09-19T14:09:59;19.90;67.40
12115;DHT22;6121;49.810;6.418;2022-09-19T14:15:02;19.70;67.10
12115;DHT22;6121;49.810;6.418;2022-09-19T14:17:30;19.60;67.00
12115;DHT22;6121;49.810;6.418;2022-09-19T14:19:59;19.50;66.60
12115;DHT22;6121;49.810;6.418;2022-09-19T14:25:24;19.60;66.70
12115;DHT22;6121;49.810;6.418;2022-09-19T14:28:23;19.70;66.90
12115;DHT22;6121;49.810;6.418;2022-09-19T14:48:15;19.00;71.70
12115;DHT22;6121;49.810;6.418;2022-09-19T14:50:49;18.60;73.20
12115;DHT22;6121;49.810;6.418;2022-09-19T14:53:19;18.30;76.20
12115;DHT22;6121;49.810;6.418;2022-09-19T14:55:52;18.20;77.10
12115;DHT22;6121;49.810;6.418;2022-09-19T14:58:27;17.80;79.00
12115;DHT22;6121;49.810;6.418;2022-09-19T15:01:05;17.60;80.80
12115;DHT22;6121;49.810;6.418;2022-09-19T15:06:31;17.20;84.10
12115;DHT22;6121;49.810;6.418;2022-09-19T15:08:58;17.30;84.50
12115;DHT22;6121;49.810;6.418;2022-09-19T15:11:24;17.20;83.20
12115;DHT22;6121;49.810;6.418;2022-09-19T15:13:52;17.10;82.90
12115;DHT22;6121;49.810;6.418;2022-09-19T15:16:22;17.20;83.90
12115;DHT22;6121;49.810;6.418;2022-09-19T15:18:55;17.10;83.20
12115;DHT22;6121;49.810;6.418;2022-09-19T15:21:24;16.90;83.50
12115;DHT22;6121;49.810;6.418;2022-09-19T15:23:52;16.90;85.60
12115;DHT22;6121;49.810;6.418;2022-09-19T15:26:22;17.10;86.40
12115;DHT22;6121;49.810;6.418;2022-09-19T15:29:04;17.40;86.90
12115;DHT22;6121;49.810;6.418;2022-09-19T15:31:33;17.50;85.60
12115;DHT22;6121;49.810;6.418;2022-09-19T15:34:00;17.40;85.70
12115;DHT22;6121;49.810;6.418;2022-09-19T15:36:27;17.50;86.80
12115;DHT22;6121;49.810;6.418;2022-09-19T15:38:55;17.60;87.30
12115;DHT22;6121;49.810;6.418;2022-09-19T15:41:26;17.50;87.50
12115;DHT22;6121;49.810;6.418;2022-09-19T15:43:55;17.50;87.90
12115;DHT22;6121;49.810;6.418;2022-09-19T15:49:26;17.50;88.50
12115;DHT22;6121;49.810;6.418;2022-09-19T15:51:58;17.30;87.90
12115;DHT22;6121;49.810;6.418;2022-09-19T15:54:26;17.30;88.40
12115;DHT22;6121;49.810;6.418;2022-09-19T15:56:56;17.30;88.40
12115;DHT22;6121;49.810;6.418;2022-09-19T15:59:24;17.30;88.10
12115;DHT22;6121;49.810;6.418;2022-09-19T16:02:00;17.20;88.00
12115;DHT22;6121;49.810;6.418;2022-09-19T16:04:41;17.20;87.90
12115;DHT22;6121;49.810;6.418;2022-09-19T16:07:25;17.10;87.90
12115;DHT22;6121;49.810;6.418;2022-09-19T16:10:23;17.10;87.90
12115;DHT22;6121;49.810;6.418;2022-09-19T16:12:51;17.00;86.90
12115;DHT22;6121;49.810;6.418;2022-09-19T16:22:58;16.90;85.60
12115;DHT22;6121;49.810;6.418;2022-09-19T16:25:34;16.90;86.20
12115;DHT22;6121;49.810;6.418;2022-09-19T16:33:41;17.00;85.90
12115;DHT22;6121;49.810;6.418;2022-09-19T16:36:11;17.10;86.40
12115;DHT22;6121;49.810;6.418;2022-09-19T16:41:26;17.10;86.60
12115;DHT22;6121;49.810;6.418;2022-09-19T16:46:49;16.90;87.40
12115;DHT22;6121;49.810;6.418;2022-09-19T16:49:17;16.90;87.90
12115;DHT22;6121;49.810;6.418;2022-09-19T16:51:43;16.80;88.20
12115;DHT22;6121;49.810;6.418;2022-09-19T16:54:18;16.80;89.40
12115;DHT22;6121;49.810;6.418;2022-09-19T16:56:46;16.70;89.70
12115;DHT22;6121;49.810;6.418;2022-09-19T16:59:13;16.70;89.10
12115;DHT22;6121;49.810;6.418;2022-09-19T17:01:39;16.60;89.20
12115;DHT22;6121;49.810;6.418;2022-09-19T17:04:11;16.50;89.70
12115;DHT22;6121;49.810;6.418;2022-09-19T17:06:37;16.40;89.10
12115;DHT22;6121;49.810;6.418;2022-09-19T17:09:03;16.50;89.20
12115;DHT22;6121;49.810;6.418;2022-09-19T17:11:28;16.50;89.60
12115;DHT22;6121;49.810;6.418;2022-09-19T17:13:54;16.50;88.00
12115;DHT22;6121;49.810;6.418;2022-09-19T17:16:20;16.40;88.10
12115;DHT22;6121;49.810;6.418;2022-09-19T17:18:46;16.20;88.20
12115;DHT22;6121;49.810;6.418;2022-09-19T17:21:14;16.20;89.50
12115;DHT22;6121;49.810;6.418;2022-09-19T17:23:41;16.20;89.90
12115;DHT22;6121;49.810;6.418;2022-09-19T17:26:07;16.10;89.80
12115;DHT22;6121;49.810;6.418;2022-09-19T17:28:32;16.10;89.30
12115;DHT22;6121;49.810;6.418;2022-09-19T17:31:01;16.00;90.00
12115;DHT22;6121;49.810;6.418;2022-09-19T17:33:28;15.90;90.20
12115;DHT22;6121;49.810;6.418;2022-09-19T17:35:55;15.50;90.90
12115;DHT22;6121;49.810;6.418;2022-09-19T17:38:29;15.50;91.40
12115;DHT22;6121;49.810;6.418;2022-09-19T17:40:55;15.40;91.50
12115;DHT22;6121;49.810;6.418;2022-09-19T17:43:22;15.40;91.70
12115;DHT22;6121;49.810;6.418;2022-09-19T17:45:55;15.30;91.70
12115;DHT22;6121;49.810;6.418;2022-09-19T17:48:25;15.20;92.00
12115;DHT22;6121;49.810;6.418;2022-09-19T17:50:51;15.10;92.40
12115;DHT22;6121;49.810;6.418;2022-09-19T17:53:17;15.10;92.60
12115;DHT22;6121;49.810;6.418;2022-09-19T17:55:43;15.00;92.90
12115;DHT22;6121;49.810;6.418;2022-09-19T17:58:09;14.90;93.00
12115;DHT22;6121;49.810;6.418;2022-09-19T18:00:39;14.60;93.30
12115;DHT22;6121;49.810;6.418;2022-09-19T18:03:05;14.70;93.90
12115;DHT22;6121;49.810;6.418;2022-09-19T18:05:58;14.70;94.00
12115;DHT22;6121;49.810;6.418;2022-09-19T18:08:26;14.70;94.30
12115;DHT22;6121;49.810;6.418;2022-09-19T18:10:58;14.60;94.40
12115;DHT22;6121;49.810;6.418;2022-09-19T18:13:24;14.60;94.50
12115;DHT22;6121;49.810;6.418;2022-09-19T18:15:50;14.40;95.00
12115;DHT22;6121;49.810;6.418;2022-09-19T18:18:17;14.40;95.10
12115;DHT22;6121;49.810;6.418;2022-09-19T18:20:52;14.30;95.40
12115;DHT22;6121;49.810;6.418;2022-09-19T18:23:22;14.30;95.60
12115;DHT22;6121;49.810;6.418;2022-09-19T18:25:48;14.20;95.30
12115;DHT22;6121;49.810;6.418;2022-09-19T18:28:14;14.20;95.40
12115;DHT22;6121;49.810;6.418;2022-09-19T18:30:40;14.00;95.60
12115;DHT22;6121;49.810;6.418;2022-09-19T18:33:05;14.00;95.80
12115;DHT22;6121;49.810;6.418;2022-09-19T18:35:31;13.90;96.10
12115;DHT22;6121;49.810;6.418;2022-09-19T18:37:56;13.90;96.40
12115;DHT22;6121;49.810;6.418;2022-09-19T18:40:23;13.80;96.70
12115;DHT22;6121;49.810;6.418;2022-09-19T18:42:49;13.80;97.00
12115;DHT22;6121;49.810;6.418;2022-09-19T18:45:16;13.70;97.30
12115;DHT22;6121;49.810;6.418;2022-09-19T18:47:42;13.70;97.50
12115;DHT22;6121;49.810;6.418;2022-09-19T18:50:08;13.20;98.50
12115;DHT22;6121;49.810;6.418;2022-09-19T18:52:36;13.10;99.00
12115;DHT22;6121;49.810;6.418;2022-09-19T18:55:01;13.20;99.50
12115;DHT22;6121;49.810;6.418;2022-09-19T18:57:28;13.20;99.60
12115;DHT22;6121;49.810;6.418;2022-09-19T18:59:54;13.30;99.70
12115;DHT22;6121;49.810;6.418;2022-09-19T19:02:20;13.00;99.90
12115;DHT22;6121;49.810;6.418;2022-09-19T19:04:46;13.10;99.90
12115;DHT22;6121;49.810;6.418;2022-09-19T19:07:12;13.10;99.90
12115;DHT22;6121;49.810;6.418;2022-09-19T19:09:39;12.90;99.90
12115;DHT22;6121;49.810;6.418;2022-09-19T19:12:05;12.60;99.90
12115;DHT22;6121;49.810;6.418;2022-09-19T19:14:31;12.70;99.90
12115;DHT22;6121;49.810;6.418;2022-09-19T19:16:57;12.80;99.90
12115;DHT22;6121;49.810;6.418;2022-09-19T19:19:24;12.80;99.90